createdAt,value
2023-03-30T00:01:12.723Z,12.13
2023-03-30T00:04:06.138Z,10.10
2023-03-30T00:06:56.942Z,10.63
2023-03-30T00:12:38.603Z,14.68
2023-03-30T00:15:31.850Z,9.02
2023-03-30T00:18:22.194Z,12.20
2023-03-30T00:21:12.203Z,8.73
2023-03-30T00:24:05.725Z,9.75
2023-03-30T00:29:54.527Z,10.50
2023-03-30T00:32:47.573Z,11.93
2023-03-30T00:35:37.925Z,8.15
2023-03-30T00:38:28.572Z,10.88
2023-03-30T00:41:19.470Z,12.45
2023-03-30T00:44:10.773Z,6.30
2023-03-30T00:47:02.359Z,11.00
2023-03-30T00:49:55.609Z,11.15
2023-03-30T00:52:45.362Z,9.17
2023-03-30T00:55:38.982Z,6.85
2023-03-30T00:58:33.348Z,7.50
2023-03-30T01:04:20.243Z,11.27
2023-03-30T01:07:13.485Z,8.77
2023-03-30T01:10:06.872Z,12.45
2023-03-30T01:12:56.743Z,8.10
2023-03-30T01:16:00.147Z,11.40
2023-03-30T01:22:13.894Z,9.25
2023-03-30T01:25:32.272Z,7.38
2023-03-30T01:28:28.211Z,7.07
2023-03-30T01:31:42.772Z,14.23
2023-03-30T01:34:52.786Z,9.32
2023-03-30T01:38:04.832Z,14.45
2023-03-30T01:41:07.622Z,10.15
2023-03-30T01:44:06.707Z,12.82
2023-03-30T01:47:03.514Z,6.25
2023-03-30T01:50:02.174Z,11.80
2023-03-30T01:52:59.198Z,9.48
2023-03-30T01:55:56.768Z,11.73
2023-03-30T01:58:55.703Z,7.82
2023-03-30T02:01:51.391Z,11.02
2023-03-30T02:04:48.405Z,9.60
2023-03-30T02:07:40.229Z,11.30
2023-03-30T02:10:36.232Z,12.57
2023-03-30T02:13:29.714Z,9.52
2023-03-30T02:16:28.176Z,17.27
2023-03-30T02:19:19.580Z,9.95
2023-03-30T02:22:09.000Z,11.57
2023-03-30T02:25:02.021Z,12.68
2023-03-30T02:27:56.970Z,10.00
2023-03-30T02:30:50.626Z,11.90
2023-03-30T02:33:50.440Z,14.35
2023-03-30T02:37:02.384Z,14.70
2023-03-30T02:40:09.687Z,15.07
2023-03-30T02:43:11.177Z,9.60
2023-03-30T02:46:15.898Z,12.60
2023-03-30T02:49:17.196Z,12.38
2023-03-30T02:52:24.932Z,14.18
2023-03-30T02:55:23.216Z,13.68
2023-03-30T02:58:40.597Z,17.10
2023-03-30T03:01:43.678Z,19.58
2023-03-30T03:04:44.458Z,12.93
2023-03-30T03:07:43.338Z,13.95
2023-03-30T03:10:37.672Z,17.15
2023-03-30T03:13:29.159Z,19.15
2023-03-30T03:16:19.682Z,15.70
2023-03-30T03:19:29.946Z,18.40
2023-03-30T03:22:26.088Z,16.05
2023-03-30T03:25:17.199Z,18.38
2023-03-30T03:28:16.807Z,14.75
2023-03-30T03:31:11.299Z,10.75
2023-03-30T03:34:04.562Z,11.52
2023-03-30T03:37:15.767Z,19.90
2023-03-30T03:40:11.356Z,15.85
2023-03-30T03:43:01.713Z,12.75
2023-03-30T03:45:54.083Z,13.30
2023-03-30T03:48:44.884Z,19.17
2023-03-30T03:51:36.525Z,17.40
2023-03-30T03:54:26.561Z,16.42
2023-03-30T03:57:17.799Z,19.90
2023-03-30T04:00:16.268Z,25.23
2023-03-30T04:03:10.253Z,21.92
2023-03-30T04:06:03.528Z,20.73
2023-03-30T04:08:53.863Z,15.88
2023-03-30T04:12:01.800Z,25.10
2023-03-30T04:15:03.485Z,18.48
2023-03-30T04:18:15.618Z,19.45
2023-03-30T04:21:18.513Z,20.45
2023-03-30T04:24:23.840Z,24.27
2023-03-30T04:27:34.907Z,20.05
2023-03-30T04:30:45.939Z,22.55
2023-03-30T04:33:57.463Z,26.25
2023-03-30T04:36:57.742Z,23.67
2023-03-30T04:39:50.748Z,24.23
2023-03-30T04:43:02.861Z,18.60
2023-03-30T04:48:48.358Z,19.30
2023-03-30T04:51:45.145Z,26.55
2023-03-30T04:54:54.806Z,21.17
2023-03-30T04:57:55.775Z,22.40
2023-03-30T05:01:01.540Z,29.55
2023-03-30T05:04:10.840Z,23.17
2023-03-30T05:07:20.629Z,25.77
2023-03-30T05:10:13.778Z,18.52
2023-03-30T05:13:16.984Z,21.80
2023-03-30T05:16:31.811Z,19.83
2023-03-30T05:19:34.541Z,25.88
2023-03-30T05:22:45.553Z,23.48
2023-03-30T05:25:47.039Z,16.35
2023-03-30T05:28:43.815Z,21.20
2023-03-30T05:31:42.111Z,25.67
2023-03-30T05:34:35.093Z,21.55
2023-03-30T05:37:47.196Z,20.67
2023-03-30T05:40:40.426Z,16.77
2023-03-30T05:43:34.226Z,20.98
2023-03-30T05:46:27.731Z,24.10
2023-03-30T05:49:36.745Z,26.83
2023-03-30T05:52:34.697Z,23.25
2023-03-30T05:55:32.941Z,16.52
2023-03-30T05:58:36.378Z,22.40
2023-03-30T06:01:47.161Z,18.58
2023-03-30T06:04:42.778Z,20.10
2023-03-30T06:07:34.092Z,16.35
2023-03-30T06:10:24.685Z,21.85
2023-03-30T06:13:17.433Z,28.50
2023-03-30T06:16:12.081Z,18.65
2023-03-30T06:19:03.213Z,24.60
2023-03-30T06:21:55.780Z,25.58
2023-03-30T06:24:58.611Z,13.57
2023-03-30T06:27:50.227Z,16.83
2023-03-30T06:30:43.556Z,16.65
2023-03-30T06:33:34.226Z,25.30
2023-03-30T06:36:44.178Z,19.73
2023-03-30T06:39:38.764Z,17.88
2023-03-30T06:42:31.042Z,17.35
2023-03-30T06:45:37.860Z,16.83
2023-03-30T06:48:28.222Z,20.67
2023-03-30T06:51:39.734Z,16.67
2023-03-30T06:54:29.986Z,24.35
2023-03-30T06:57:31.491Z,24.95
2023-03-30T07:00:21.911Z,14.57
2023-03-30T07:03:32.642Z,14.48
2023-03-30T07:06:22.972Z,20.48
2023-03-30T07:09:14.187Z,15.27
2023-03-30T07:12:04.246Z,26.67
2023-03-30T07:14:59.024Z,18.25
2023-03-30T07:17:49.654Z,17.67
2023-03-30T07:20:40.436Z,21.98
2023-03-30T07:23:44.713Z,15.95
2023-03-30T07:26:48.723Z,15.32
2023-03-30T07:29:38.808Z,13.02
2023-03-30T07:32:32.459Z,16.70
2023-03-30T07:35:20.747Z,20.60
2023-03-30T07:38:09.321Z,15.90
2023-03-30T07:41:03.653Z,14.15
2023-03-30T07:43:52.311Z,18.00
2023-03-30T07:46:41.473Z,20.30
2023-03-30T07:49:41.186Z,16.83
2023-03-30T07:52:29.577Z,14.10
2023-03-30T07:55:22.166Z,16.43
2023-03-30T07:58:20.564Z,16.70
2023-03-30T08:01:08.652Z,12.75
2023-03-30T08:04:16.300Z,16.80
2023-03-30T08:07:06.213Z,14.45
2023-03-30T08:09:54.375Z,20.33
2023-03-30T08:12:42.643Z,20.00
2023-03-30T08:15:30.893Z,16.80
2023-03-30T08:18:18.895Z,18.70
2023-03-30T08:21:07.310Z,12.15
2023-03-30T08:23:59.146Z,16.73
2023-03-30T08:26:47.582Z,13.25
2023-03-30T08:29:35.908Z,17.10
2023-03-30T08:32:24.200Z,16.08
2023-03-30T08:35:13.450Z,16.17
2023-03-30T08:38:01.410Z,16.17
2023-03-30T08:40:52.307Z,14.38
2023-03-30T08:43:51.843Z,12.02
2023-03-30T08:46:43.441Z,16.98
2023-03-30T08:49:38.840Z,15.15
2023-03-30T08:52:30.605Z,14.57
2023-03-30T08:55:26.335Z,16.35
2023-03-30T08:58:24.617Z,12.98
2023-03-30T09:01:20.415Z,23.55
2023-03-30T09:04:20.610Z,19.52
2023-03-30T09:07:18.182Z,13.80
2023-03-30T09:10:13.698Z,18.92
2023-03-30T09:13:03.810Z,18.30
2023-03-30T09:16:00.464Z,15.95
2023-03-30T09:18:55.563Z,11.85
2023-03-30T09:21:46.977Z,12.65
2023-03-30T09:24:40.085Z,15.45
2023-03-30T09:27:42.458Z,12.35
2023-03-30T09:30:42.432Z,18.27
2023-03-30T09:33:43.537Z,11.38
2023-03-30T09:36:39.730Z,12.40
2023-03-30T09:39:32.965Z,12.30
2023-03-30T09:42:34.319Z,12.00
2023-03-30T09:45:27.934Z,13.68
2023-03-30T09:48:18.230Z,17.83
2023-03-30T09:51:17.793Z,9.82
2023-03-30T09:54:08.132Z,14.60
2023-03-30T09:56:57.333Z,18.02
2023-03-30T09:59:46.181Z,16.58
2023-03-30T10:02:34.481Z,21.77
2023-03-30T10:05:22.776Z,14.98
2023-03-30T10:08:25.133Z,12.15
2023-03-30T10:11:13.365Z,18.60
2023-03-30T10:14:01.317Z,15.93
2023-03-30T10:16:49.266Z,16.70
2023-03-30T10:19:38.971Z,20.52
2023-03-30T10:22:30.989Z,14.50
2023-03-30T10:25:25.282Z,21.17
2023-03-30T10:28:21.906Z,18.00
2023-03-30T10:31:17.072Z,13.77
2023-03-30T10:34:08.057Z,13.05
2023-03-30T10:36:56.233Z,19.85
2023-03-30T10:39:47.571Z,18.30
2023-03-30T10:42:37.848Z,18.90
2023-03-30T10:45:43.235Z,16.05
2023-03-30T10:48:46.749Z,19.70
2023-03-30T10:51:43.815Z,12.10
2023-03-30T10:54:35.636Z,16.05
2023-03-30T10:57:30.429Z,13.13
2023-03-30T11:00:31.900Z,21.85
2023-03-30T11:03:26.161Z,17.77
2023-03-30T11:06:18.428Z,12.88
2023-03-30T11:09:12.000Z,16.63
2023-03-30T11:12:04.855Z,21.67
2023-03-30T11:14:57.269Z,12.32
2023-03-30T11:17:56.201Z,17.30
2023-03-30T11:20:53.112Z,14.93
2023-03-30T11:23:47.453Z,17.58
2023-03-30T11:26:41.093Z,14.43
2023-03-30T11:29:38.311Z,19.25
2023-03-30T11:32:33.257Z,19.23
2023-03-30T11:35:31.890Z,14.48
2023-03-30T11:38:25.340Z,14.23
2023-03-30T11:44:03.157Z,8.93
2023-03-30T11:47:01.679Z,13.60
2023-03-30T11:50:04.596Z,9.73
2023-03-30T11:53:09.094Z,10.07
2023-03-30T11:56:07.994Z,13.25
2023-03-30T11:59:06.188Z,8.95
2023-03-30T12:02:08.547Z,12.18
2023-03-30T12:05:02.006Z,8.80
2023-03-30T12:07:59.102Z,7.07
2023-03-30T12:10:52.165Z,7.07
2023-03-30T12:13:51.336Z,7.95
2023-03-30T12:16:47.151Z,9.68
2023-03-30T12:19:55.492Z,8.95
2023-03-30T12:22:49.335Z,9.68
2023-03-30T12:25:51.729Z,14.27
2023-03-30T12:29:20.858Z,7.97
2023-03-30T12:32:22.120Z,11.43
2023-03-30T12:35:39.339Z,7.15
2023-03-30T12:38:26.627Z,7.95
2023-03-30T12:41:18.646Z,7.25
2023-03-30T12:44:35.813Z,9.30
2023-03-30T12:47:38.056Z,11.85
2023-03-30T12:50:37.611Z,11.23
2023-03-30T12:54:03.840Z,9.25
2023-03-30T12:57:03.651Z,9.90
2023-03-30T13:00:05.758Z,6.90
2023-03-30T13:03:10.983Z,9.98
2023-03-30T13:06:02.108Z,5.50
2023-03-30T13:08:57.147Z,7.38
2023-03-30T13:11:46.170Z,5.72
2023-03-30T13:14:47.969Z,9.30
2023-03-30T13:17:58.575Z,6.97
2023-03-30T13:21:07.505Z,5.65
2023-03-30T13:24:06.959Z,10.02
2023-03-30T13:26:54.363Z,4.63
2023-03-30T13:29:43.949Z,6.72
2023-03-30T13:32:46.727Z,5.53
2023-03-30T13:35:50.616Z,6.80
2023-03-30T13:38:54.179Z,4.63
2023-03-30T13:41:55.523Z,4.75
2023-03-30T13:44:57.257Z,3.83
2023-03-30T13:47:57.493Z,8.55
2023-03-30T13:50:50.456Z,4.97
2023-03-30T13:53:43.631Z,3.92
2023-03-30T13:56:35.207Z,7.30
2023-03-30T13:59:27.349Z,5.50
2023-03-30T14:02:19.222Z,8.02
2023-03-30T14:05:15.850Z,6.85
2023-03-30T14:08:04.574Z,6.85
2023-03-30T14:10:53.814Z,6.32
2023-03-30T14:13:41.198Z,6.43
2023-03-30T14:16:33.913Z,7.05
2023-03-30T14:19:26.686Z,10.85
2023-03-30T14:22:21.502Z,6.53
2023-03-30T14:25:25.928Z,7.97
2023-03-30T14:28:16.582Z,9.38
2023-03-30T14:31:06.995Z,7.28
2023-03-30T14:33:55.120Z,8.23
2023-03-30T14:36:46.501Z,9.32
2023-03-30T14:39:39.676Z,10.93
2023-03-30T14:42:34.051Z,10.50
2023-03-30T14:45:22.047Z,8.88
2023-03-30T14:48:14.856Z,12.48
2023-03-30T14:51:03.602Z,12.23
2023-03-30T14:53:53.086Z,13.65
2023-03-30T14:56:41.432Z,7.18
2023-03-30T14:59:30.185Z,15.10
2023-03-30T15:02:21.925Z,8.52
2023-03-30T15:05:10.919Z,12.27
2023-03-30T15:07:58.778Z,10.00
2023-03-30T15:10:53.100Z,10.55
2023-03-30T15:13:45.150Z,10.43
2023-03-30T15:16:35.997Z,9.17
2023-03-30T15:19:31.218Z,9.88
2023-03-30T15:22:25.995Z,11.30
2023-03-30T15:25:16.960Z,8.35
2023-03-30T15:28:08.398Z,9.57
2023-03-30T15:30:59.157Z,8.23
2023-03-30T15:33:48.580Z,7.55
2023-03-30T15:36:40.131Z,8.43
2023-03-30T15:39:34.221Z,9.68
2023-03-30T15:42:27.249Z,9.65
2023-03-30T15:45:19.523Z,10.20
2023-03-30T15:48:11.967Z,8.57
2023-03-30T15:51:05.739Z,10.03
2023-03-30T15:53:56.705Z,7.28
2023-03-30T15:56:50.765Z,5.43
2023-03-30T15:59:42.368Z,9.20
2023-03-30T16:02:58.153Z,7.07
2023-03-30T16:05:45.948Z,7.28
2023-03-30T16:08:33.882Z,9.18
2023-03-30T16:11:23.177Z,7.78
2023-03-30T16:14:15.937Z,7.70
2023-03-30T16:17:03.294Z,6.97
2023-03-30T16:19:52.152Z,8.55
2023-03-30T16:22:39.812Z,7.15
2023-03-30T16:28:20.834Z,7.07
2023-03-30T16:31:15.744Z,6.78
2023-03-30T16:34:03.903Z,7.88
2023-03-30T16:36:52.965Z,7.20
2023-03-30T16:39:40.876Z,7.50
2023-03-30T16:42:28.474Z,6.32
2023-03-30T16:45:16.593Z,10.88
2023-03-30T16:48:04.404Z,7.78
2023-03-30T16:50:54.816Z,6.40
2023-03-30T16:53:43.860Z,6.07
2023-03-30T16:56:32.110Z,6.63
2023-03-30T16:59:24.446Z,9.43
2023-03-30T17:02:17.474Z,8.45
2023-03-30T17:05:06.623Z,6.93
2023-03-30T17:07:55.537Z,11.20
2023-03-30T17:10:44.624Z,9.23
2023-03-30T17:13:33.542Z,8.88
2023-03-30T17:16:22.232Z,15.55
2023-03-30T17:19:14.249Z,9.45
2023-03-30T17:22:01.517Z,8.98
2023-03-30T17:24:49.369Z,12.65
2023-03-30T17:27:38.614Z,10.02
2023-03-30T17:30:28.134Z,8.05
2023-03-30T17:33:15.641Z,11.10
2023-03-30T17:36:06.385Z,8.38
2023-03-30T17:38:54.724Z,9.65
2023-03-30T17:41:42.498Z,7.45
2023-03-30T17:44:31.386Z,9.88
2023-03-30T17:47:18.902Z,12.07
2023-03-30T17:50:19.354Z,9.95
2023-03-30T17:53:07.668Z,8.32
2023-03-30T17:55:55.472Z,7.88
2023-03-30T17:58:43.135Z,10.50
2023-03-30T18:01:35.557Z,9.85
2023-03-30T18:04:24.477Z,7.60
2023-03-30T18:07:13.369Z,9.57
2023-03-30T18:10:00.793Z,8.57
2023-03-30T18:12:48.622Z,6.47
2023-03-30T18:15:36.806Z,9.77
2023-03-30T18:18:28.033Z,7.88
2023-03-30T18:21:15.639Z,8.15
2023-03-30T18:24:03.892Z,10.13
2023-03-30T18:26:52.755Z,9.60
2023-03-30T18:29:40.633Z,10.23
2023-03-30T18:32:37.203Z,12.38
2023-03-30T18:35:37.825Z,9.50
2023-03-30T18:38:26.011Z,9.18
2023-03-30T18:41:14.814Z,6.75
2023-03-30T18:44:02.739Z,8.18
2023-03-30T18:46:53.055Z,9.25
2023-03-30T18:49:40.755Z,9.70
2023-03-30T18:52:29.943Z,7.82
2023-03-30T18:55:19.182Z,6.43
2023-03-30T18:58:08.391Z,6.55
2023-03-30T19:00:57.321Z,8.38
2023-03-30T19:03:46.228Z,9.55
2023-03-30T19:06:34.333Z,12.35
2023-03-30T19:09:36.397Z,6.45
2023-03-30T19:12:28.933Z,8.45
2023-03-30T19:15:23.052Z,12.75
2023-03-30T19:18:10.850Z,6.97
2023-03-30T19:20:58.541Z,6.03
2023-03-30T19:23:46.745Z,4.70
2023-03-30T19:26:36.360Z,5.50
2023-03-30T19:29:24.563Z,6.18
2023-03-30T19:32:13.144Z,4.88
2023-03-30T19:35:00.954Z,5.80
2023-03-30T19:37:48.817Z,5.22
2023-03-30T19:40:38.076Z,4.70
2023-03-30T19:43:27.180Z,4.50
2023-03-30T19:46:14.857Z,11.55
2023-03-30T19:49:02.818Z,5.38
2023-03-30T19:51:50.446Z,6.68
2023-03-30T19:54:38.178Z,6.78
2023-03-30T19:57:26.146Z,7.82
2023-03-30T20:00:21.332Z,5.40
2023-03-30T20:03:11.259Z,5.45
2023-03-30T20:06:02.124Z,8.13
2023-03-30T20:08:52.793Z,5.82
2023-03-30T20:11:43.106Z,8.40
2023-03-30T20:14:33.265Z,5.85
2023-03-30T20:17:31.223Z,8.75
2023-03-30T20:20:26.588Z,6.60
2023-03-30T20:23:18.142Z,7.47
2023-03-30T20:26:09.226Z,5.80
2023-03-30T20:29:00.497Z,5.15
2023-03-30T20:31:50.516Z,9.65
2023-03-30T20:34:43.655Z,5.60
2023-03-30T20:37:37.139Z,4.32
2023-03-30T20:40:28.555Z,7.05
2023-03-30T20:43:20.162Z,5.05
2023-03-30T20:46:14.874Z,7.30
2023-03-30T20:49:06.169Z,6.80
2023-03-30T20:52:01.692Z,5.25
2023-03-30T20:54:51.523Z,8.07
2023-03-30T20:57:46.388Z,6.80
2023-03-30T21:00:37.621Z,7.80
2023-03-30T21:03:31.032Z,7.60
2023-03-30T21:06:24.290Z,4.50
2023-03-30T21:09:19.315Z,7.80
2023-03-30T21:12:10.763Z,6.88
2023-03-30T21:15:01.284Z,7.53
2023-03-30T21:17:53.240Z,8.52
2023-03-30T21:20:43.923Z,5.75
2023-03-30T21:23:35.150Z,5.40
2023-03-30T21:26:26.991Z,7.50
2023-03-30T21:29:20.768Z,5.35
2023-03-30T21:32:11.043Z,6.95
2023-03-30T21:35:01.541Z,6.80
2023-03-30T21:37:51.464Z,8.07
2023-03-30T21:40:43.957Z,6.78
2023-03-30T21:43:40.007Z,7.90
2023-03-30T21:46:30.425Z,6.38
2023-03-30T21:49:21.454Z,7.43
2023-03-30T21:52:13.471Z,8.05
2023-03-30T21:55:03.724Z,5.32
2023-03-30T21:57:54.391Z,9.55
2023-03-30T22:00:53.357Z,8.85
2023-03-30T22:03:51.035Z,10.77
2023-03-30T22:06:42.057Z,7.25
2023-03-30T22:09:33.094Z,8.18
2023-03-30T22:12:22.800Z,6.03
2023-03-30T22:15:13.346Z,7.28
2023-03-30T22:18:07.330Z,6.82
2023-03-30T22:21:01.131Z,6.72
2023-03-30T22:23:50.705Z,7.72
2023-03-30T22:26:42.197Z,5.97
2023-03-30T22:29:32.367Z,11.00
2023-03-30T22:32:25.484Z,8.50
2023-03-30T22:35:17.794Z,8.27
2023-03-30T22:38:09.525Z,8.70
2023-03-30T22:41:07.256Z,13.95
2023-03-30T22:44:01.832Z,7.32
2023-03-30T22:46:52.249Z,14.10
2023-03-30T22:49:42.373Z,9.60
2023-03-30T22:52:42.257Z,11.70
2023-03-30T22:55:31.944Z,12.20
2023-03-30T22:58:21.057Z,12.80
2023-03-30T23:01:11.540Z,10.23
2023-03-30T23:04:01.635Z,9.80
2023-03-30T23:06:52.661Z,11.15
2023-03-30T23:09:48.544Z,9.98
2023-03-30T23:12:38.563Z,11.65
2023-03-30T23:15:30.044Z,13.00
2023-03-30T23:18:24.348Z,12.23
2023-03-30T23:21:14.596Z,15.70
2023-03-30T23:24:07.635Z,10.32
2023-03-30T23:26:59.382Z,13.25
2023-03-30T23:29:51.502Z,11.57
2023-03-30T23:32:41.992Z,10.10
2023-03-30T23:35:32.394Z,12.02
2023-03-30T23:38:22.534Z,12.40
2023-03-30T23:41:15.515Z,8.95
2023-03-30T23:44:07.458Z,12.98
2023-03-30T23:46:58.071Z,11.17
2023-03-30T23:49:48.703Z,12.45
2023-03-30T23:52:39.233Z,12.25
2023-03-30T23:55:29.078Z,13.77
2023-03-30T23:58:18.615Z,21.38
